Time;durP1;ratioP1;P1;durP2;ratioP2;P2;SDS_P1;SDS_P2;PMS_P1;PMS_P2;Temp;Humidity;BMP_temperature;BMP_pressure;BME280_temperature;BME280_humidity;BME280_pressure;Samples;Min_cycle;Max_cycle;Signal;HPM_P1;HPM_P2
2024/02/01 00:02:09;;;;;;;23.27;11.00;;;7.70;99.90;;;;;;5033742;28;20026;-82
2024/02/01 00:04:35;;;;;;;19.97;11.30;;;7.70;99.90;;;;;;5033363;28;20030;-81
2024/02/01 00:07:00;;;;;;;25.73;12.10;;;7.80;99.90;;;;;;5033201;28;20148;-81
2024/02/01 00:09:26;;;;;;;17.60;11.57;;;7.70;99.90;;;;;;5033446;28;20390;-81
2024/02/01 00:11:51;;;;;;;21.13;11.47;;;7.80;99.90;;;;;;5031883;28;20025;-81
2024/02/01 00:14:17;;;;;;;18.50;12.30;;;7.70;99.90;;;;;;5032930;28;20037;-81
2024/02/01 00:16:43;;;;;;;25.80;14.07;;;7.70;99.90;;;;;;5033350;28;20033;-82
2024/02/01 00:19:08;;;;;;;25.07;15.03;;;7.80;99.90;;;;;;5031829;28;20025;-81
2024/02/01 00:21:34;;;;;;;25.77;15.33;;;7.80;99.90;;;;;;5031919;28;20389;-82
2024/02/01 00:24:00;;;;;;;22.83;14.43;;;7.80;99.90;;;;;;5031635;28;20476;-82
2024/02/01 00:26:25;;;;;;;19.70;13.17;;;7.80;99.90;;;;;;5032782;28;20461;-82
2024/02/01 00:28:51;;;;;;;22.10;13.67;;;7.90;99.90;;;;;;5031809;28;20025;-82
2024/02/01 00:31:16;;;;;;;24.03;14.07;;;7.90;99.90;;;;;;5033159;28;20030;-81
2024/02/01 00:33:43;;;;;;;28.73;15.20;;;7.90;99.90;;;;;;5032734;28;20037;-82
2024/02/01 00:36:09;;;;;;;19.63;13.50;;;7.90;99.90;;;;;;5031548;28;20405;-80
2024/02/01 00:38:35;;;;;;;33.20;14.80;;;7.90;99.90;;;;;;5032931;28;20026;-81
2024/02/01 00:41:05;;;;;;;27.13;14.73;;;7.90;99.90;;;;;;5038558;28;20510;-81
2024/02/01 00:43:31;;;;;;;24.50;14.13;;;7.90;99.90;;;;;;5038330;28;20063;-81
2024/02/01 00:45:57;;;;;;;26.87;14.17;;;7.90;99.90;;;;;;5038062;28;20022;-81
2024/02/01 00:48:22;;;;;;;22.40;14.53;;;7.90;99.90;;;;;;5037969;28;20029;-81
2024/02/01 00:50:48;;;;;;;27.93;14.93;;;8.00;99.90;;;;;;5038141;28;20017;-81
2024/02/01 00:53:14;;;;;;;21.40;13.23;;;8.00;99.90;;;;;;5039206;28;20496;-81
2024/02/01 00:55:43;;;;;;;23.37;13.37;;;8.00;99.90;;;;;;5039190;28;20049;-81
2024/02/01 00:58:09;;;;;;;25.10;13.77;;;8.00;99.90;;;;;;5037921;28;20021;-79
2024/02/01 01:00:35;;;;;;;25.73;14.27;;;8.00;99.90;;;;;;5039323;28;20029;-81
2024/02/01 01:03:00;;;;;;;26.60;14.17;;;8.00;99.90;;;;;;5038207;28;20025;-81
2024/02/01 01:05:26;;;;;;;28.70;14.87;;;8.00;99.90;;;;;;5039634;28;20025;-81
2024/02/01 01:07:52;;;;;;;25.40;15.53;;;8.10;99.90;;;;;;5039247;28;20397;-80
2024/02/01 01:10:17;;;;;;;24.33;14.93;;;8.10;99.90;;;;;;5039147;28;20029;-81
2024/02/01 01:12:43;;;;;;;29.00;15.70;;;8.10;99.90;;;;;;5037693;28;20021;-81
2024/02/01 01:15:09;;;;;;;29.70;16.20;;;8.10;99.90;;;;;;5039265;28;20425;-81
2024/02/01 01:17:35;;;;;;;25.83;15.43;;;8.10;99.90;;;;;;5039226;28;20026;-81
2024/02/01 01:20:03;;;;;;;26.43;14.97;;;8.20;99.90;;;;;;5037944;28;20504;-81
2024/02/01 01:22:29;;;;;;;31.20;15.87;;;8.20;99.90;;;;;;5039147;28;20424;-81
2024/02/01 01:24:55;;;;;;;27.40;15.57;;;8.20;99.90;;;;;;5037365;28;20033;-81
2024/02/01 01:27:21;;;;;;;27.87;15.07;;;8.20;99.90;;;;;;5039229;28;20075;-82
2024/02/01 01:29:47;;;;;;;30.23;16.77;;;8.20;99.90;;;;;;5037712;28;20053;-81
2024/02/01 01:32:14;;;;;;;27.53;16.17;;;8.30;99.90;;;;;;5026320;28;20057;-80
2024/02/01 01:34:39;;;;;;;26.20;15.23;;;8.30;99.90;;;;;;5050325;28;20367;-81
2024/02/01 01:37:05;;;;;;;27.60;16.20;;;8.30;99.90;;;;;;5038556;28;20030;-81
2024/02/01 01:39:31;;;;;;;26.47;15.33;;;8.30;99.90;;;;;;5037112;28;20152;-81
2024/02/01 01:41:57;;;;;;;28.10;16.63;;;8.40;99.90;;;;;;5037664;28;20041;-82
2024/02/01 01:44:22;;;;;;;23.03;15.90;;;8.40;99.90;;;;;;5038985;28;20025;-82
2024/02/01 01:46:48;;;;;;;29.03;16.50;;;8.40;99.90;;;;;;5039003;28;20025;-81
2024/02/01 01:49:17;;;;;;;24.73;15.23;;;8.40;99.90;;;;;;5037765;28;20393;-82
2024/02/01 01:51:46;;;;;;;24.63;15.50;;;8.40;99.90;;;;;;5035533;28;20362;-80
2024/02/01 01:54:12;;;;;;;31.73;16.90;;;8.40;99.90;;;;;;5035502;28;20482;-82
2024/02/01 01:56:40;;;;;;;27.73;16.77;;;8.50;99.90;;;;;;5035682;28;20489;-81
2024/02/01 01:59:06;;;;;;;28.53;15.80;;;8.50;99.90;;;;;;5035757;28;20057;-81
2024/02/01 02:01:35;;;;;;;29.00;17.13;;;8.50;99.90;;;;;;5035825;28;20030;-82
2024/02/01 02:04:01;;;;;;;26.93;17.03;;;8.50;99.90;;;;;;5034608;28;20082;-81
2024/02/01 02:06:28;;;;;;;26.87;16.93;;;8.60;99.90;;;;;;5035273;28;20075;-82
2024/02/01 02:08:53;;;;;;;30.67;17.10;;;8.50;99.90;;;;;;5035409;28;20026;-82
2024/02/01 02:11:19;;;;;;;23.77;15.13;;;8.50;99.90;;;;;;5034248;28;20068;-82
2024/02/01 02:13:48;;;;;;;23.77;15.57;;;8.60;99.90;;;;;;5034159;28;20037;-82
2024/02/01 02:16:14;;;;;;;25.40;17.33;;;8.60;99.90;;;;;;5034250;28;20068;-82
2024/02/01 02:18:39;;;;;;;25.47;16.07;;;8.60;99.90;;;;;;5033928;28;20026;-81
2024/02/01 02:21:06;;;;;;;25.03;15.60;;;8.60;99.90;;;;;;5035217;28;20037;-81
2024/02/01 02:23:34;;;;;;;22.90;16.10;;;8.60;99.90;;;;;;5035125;28;20030;-82
2024/02/01 02:25:59;;;;;;;21.03;14.97;;;8.60;99.90;;;;;;5035070;28;20385;-81
2024/02/01 02:28:25;;;;;;;23.43;14.73;;;8.60;99.90;;;;;;5033899;28;20028;-82
2024/02/01 02:30:51;;;;;;;21.90;14.07;;;8.60;99.90;;;;;;5035081;28;20124;-82
2024/02/01 02:33:16;;;;;;;25.20;15.17;;;8.70;99.90;;;;;;5034968;28;20027;-82
2024/02/01 02:35:42;;;;;;;20.37;13.80;;;8.70;99.90;;;;;;5034622;28;20515;-82
2024/02/01 02:38:07;;;;;;;25.53;15.43;;;8.70;99.90;;;;;;5034861;28;20025;-82
2024/02/01 02:40:33;;;;;;;26.00;13.67;;;8.80;99.90;;;;;;5033752;28;20041;-82
2024/02/01 02:42:59;;;;;;;21.13;13.40;;;8.80;99.90;;;;;;5034865;28;20400;-81
2024/02/01 02:45:24;;;;;;;22.20;14.70;;;8.80;99.90;;;;;;5034767;28;20017;-82
2024/02/01 02:47:51;;;;;;;23.13;13.97;;;8.80;99.90;;;;;;5033278;28;20025;-82
2024/02/01 02:50:16;;;;;;;27.83;14.97;;;8.80;99.90;;;;;;5034453;28;20018;-82
2024/02/01 02:52:43;;;;;;;20.37;13.43;;;8.80;99.90;;;;;;5033389;28;20148;-82
2024/02/01 02:55:09;;;;;;;20.13;12.10;;;8.80;99.90;;;;;;5033470;28;20366;-82
2024/02/01 02:57:35;;;;;;;28.60;15.00;;;8.90;99.90;;;;;;5035284;28;20052;-82
2024/02/01 03:00:05;;;;;;;23.83;14.67;;;8.90;99.90;;;;;;5034611;28;20026;-82
2024/02/01 03:02:31;;;;;;;21.63;13.70;;;8.90;99.90;;;;;;5034055;28;20017;-82
2024/02/01 03:04:57;;;;;;;26.90;14.03;;;8.90;99.90;;;;;;5034246;28;20021;-82
2024/02/01 03:07:22;;;;;;;26.37;12.60;;;8.90;99.90;;;;;;5033257;28;20029;-82
2024/02/01 03:09:48;;;;;;;26.90;12.60;;;8.90;99.90;;;;;;5034359;28;20018;-82
2024/02/01 03:12:14;;;;;;;26.40;12.30;;;8.90;99.90;;;;;;5035813;28;20030;-82
2024/02/01 03:14:40;;;;;;;31.40;11.40;;;8.90;99.90;;;;;;5034335;28;20362;-82
2024/02/01 03:17:08;;;;;;;24.77;10.40;;;9.00;99.90;;;;;;5034735;28;20481;-82
2024/02/01 03:19:39;;;;;;;25.17;10.20;;;9.00;99.90;;;;;;5034213;28;20048;-82
2024/02/01 03:22:05;;;;;;;20.13;9.00;;;9.00;99.90;;;;;;5032672;28;20022;-82
2024/02/01 03:24:31;;;;;;;25.07;9.60;;;9.00;99.90;;;;;;5034284;28;20025;-81
2024/02/01 03:27:01;;;;;;;26.57;9.30;;;9.00;99.90;;;;;;5034099;28;20021;-82
2024/02/01 03:29:35;;;;;;;24.70;9.00;;;9.00;99.90;;;;;;5033974;28;20521;-83
2024/02/01 03:32:05;;;;;;;29.17;9.70;;;9.00;99.90;;;;;;5033869;28;20033;-82
2024/02/01 03:34:31;;;;;;;29.87;9.73;;;9.00;99.90;;;;;;5033732;28;20390;-82
2024/02/01 03:36:58;;;;;;;20.43;8.60;;;9.00;99.90;;;;;;5033914;28;20026;-82
2024/02/01 03:39:24;;;;;;;25.67;9.37;;;9.00;99.90;;;;;;5033584;28;20013;-82
2024/02/01 03:41:54;;;;;;;25.90;7.67;;;8.90;99.90;;;;;;5032654;28;20032;-83
2024/02/01 03:44:24;;;;;;;25.53;6.63;;;8.90;99.90;;;;;;5033592;28;20025;-82
2024/02/01 03:46:57;;;;;;;22.07;5.80;;;8.90;99.90;;;;;;5033661;28;20147;-83
2024/02/01 03:49:24;;;;;;;29.02;5.40;;;8.80;99.90;;;;;;5033826;28;20175;-81
2024/02/01 03:51:50;;;;;;;23.13;5.27;;;8.70;99.90;;;;;;5032376;28;20045;-82
2024/02/01 03:54:16;;;;;;;17.30;5.07;;;8.70;99.90;;;;;;5033310;28;20036;-81
2024/02/01 03:56:42;;;;;;;17.73;4.20;;;8.70;99.90;;;;;;5033742;28;20022;-82
2024/02/01 03:59:11;;;;;;;17.43;4.67;;;8.60;99.90;;;;;;5033331;28;20025;-82
2024/02/01 04:01:40;;;;;;;27.47;4.73;;;8.60;99.90;;;;;;5033541;28;20033;-81
2024/02/01 04:04:05;;;;;;;27.50;5.23;;;8.60;99.90;;;;;;5033112;28;20095;-82
2024/02/01 04:06:34;;;;;;;20.53;3.97;;;8.40;99.90;;;;;;5032151;28;20021;-82
2024/02/01 04:09:00;;;;;;;19.97;4.40;;;8.40;99.90;;;;;;5033350;28;20026;-84
2024/02/01 04:11:29;;;;;;;23.07;5.33;;;8.40;99.90;;;;;;5032037;28;20535;-82
2024/02/01 04:13:56;;;;;;;28.13;4.40;;;8.40;99.90;;;;;;5032515;28;20144;-85
2024/02/01 04:16:21;;;;;;;25.63;4.20;;;8.30;99.90;;;;;;5031735;28;20544;-82
2024/02/01 04:18:47;;;;;;;25.60;3.60;;;8.30;99.90;;;;;;5033319;28;20105;-82
2024/02/01 04:21:13;;;;;;;31.03;4.27;;;8.30;99.90;;;;;;5031753;28;20060;-83
2024/02/01 04:23:39;;;;;;;21.13;3.73;;;8.10;99.90;;;;;;5033112;28;20056;-82
2024/02/01 04:26:05;;;;;;;22.87;3.13;;;8.00;99.90;;;;;;5032715;28;20022;-83
2024/02/01 04:28:33;;;;;;;22.80;3.37;;;7.90;99.90;;;;;;5033109;28;20013;-82
2024/02/01 04:31:01;;;;;;;22.10;3.03;;;7.90;99.90;;;;;;5031786;28;20540;-85
2024/02/01 04:33:28;;;;;;;24.57;3.53;;;7.80;99.90;;;;;;5031799;28;20183;-81
2024/02/01 04:35:53;;;;;;;24.87;3.10;;;7.70;99.90;;;;;;5033304;28;20030;-84
2024/02/01 04:38:20;;;;;;;18.43;3.30;;;7.70;99.90;;;;;;5032834;28;20387;-82
2024/02/01 04:40:46;;;;;;;23.87;3.23;;;7.60;99.90;;;;;;5031364;28;20481;-82
2024/02/01 04:43:13;;;;;;;29.73;3.80;;;7.50;99.90;;;;;;5033022;28;20029;-82
2024/02/01 04:45:40;;;;;;;24.47;3.27;;;7.40;99.90;;;;;;5033028;28;20026;-81
2024/02/01 04:48:10;;;;;;;21.40;2.33;;;7.30;99.90;;;;;;5030982;28;20080;-81
2024/02/01 04:50:36;;;;;;;24.30;2.50;;;7.30;99.90;;;;;;5033419;28;20026;-81
2024/02/01 04:53:02;;;;;;;19.87;2.53;;;7.20;99.90;;;;;;5032803;28;20056;-81
2024/02/01 04:55:28;;;;;;;19.07;2.93;;;7.10;99.90;;;;;;5031535;28;20477;-81
2024/02/01 04:57:54;;;;;;;15.43;2.23;;;7.00;99.90;;;;;;5032511;28;20029;-82
2024/02/01 05:00:21;;;;;;;14.57;3.00;;;7.00;99.90;;;;;;5033145;28;20056;-82
2024/02/01 05:02:47;;;;;;;23.17;2.30;;;6.90;99.90;;;;;;5031386;28;20403;-82
2024/02/01 05:05:14;;;;;;;17.97;2.60;;;6.80;99.90;;;;;;5032597;28;20105;-82
2024/02/01 05:07:39;;;;;;;24.37;1.97;;;6.70;99.90;;;;;;5032708;28;20045;-82
2024/02/01 05:10:09;;;;;;;16.13;2.70;;;6.60;99.90;;;;;;5031350;28;20060;-82
2024/02/01 05:12:38;;;;;;;26.30;2.43;;;6.60;99.90;;;;;;5032749;28;20045;-82
2024/02/01 05:15:07;;;;;;;20.23;2.20;;;6.50;99.90;;;;;;5031248;28;20551;-82
2024/02/01 05:17:36;;;;;;;21.10;2.73;;;6.50;99.90;;;;;;5032488;28;20030;-82
2024/02/01 05:20:08;;;;;;;18.07;2.43;;;6.40;99.90;;;;;;5032459;28;20030;-81
2024/02/01 05:22:37;;;;;;;15.83;1.90;;;6.40;99.90;;;;;;5032813;28;20096;-82
2024/02/01 05:25:15;;;;;;;22.20;2.20;;;6.30;99.90;;;;;;5032687;28;20389;-82
2024/02/01 05:27:50;;;;;;;22.30;3.10;;;6.20;99.90;;;;;;5036605;28;20466;-82
2024/02/01 05:30:16;;;;;;;24.07;3.03;;;6.20;99.90;;;;;;5019495;28;20029;-82
2024/02/01 05:32:51;;;;;;;20.80;2.10;;;6.20;99.90;;;;;;5016210;28;20022;-82
2024/02/01 05:35:24;;;;;;;20.73;2.47;;;6.00;99.90;;;;;;5015924;28;20045;-82
2024/02/01 05:37:50;;;;;;;14.83;1.60;;;6.10;99.90;;;;;;5031432;28;20022;-82
2024/02/01 05:40:17;;;;;;;21.73;2.60;;;6.00;99.90;;;;;;5014751;28;20049;-82
2024/02/01 05:42:46;;;;;;;20.83;2.47;;;6.00;99.90;;;;;;5015149;28;20049;-82
2024/02/01 05:45:13;;;;;;;15.10;2.10;;;5.90;99.90;;;;;;5016152;28;20517;-82
2024/02/01 05:47:38;;;;;;;19.23;2.60;;;5.90;99.90;;;;;;5015606;28;20033;-82
2024/02/01 05:50:06;;;;;;;15.43;2.17;;;5.90;99.90;;;;;;5016260;28;20157;-81
2024/02/01 05:52:39;;;;;;;14.03;1.57;;;5.80;99.90;;;;;;5031324;28;20029;-81
2024/02/01 05:55:10;;;;;;;21.67;3.33;;;5.80;99.90;;;;;;5015941;28;20103;-82
2024/02/01 05:57:36;;;;;;;16.87;2.13;;;5.80;99.90;;;;;;5015811;28;20280;-82
2024/02/01 06:00:09;;;;;;;14.93;2.30;;;5.70;99.90;;;;;;5015594;28;20022;-81
2024/02/01 06:02:36;;;;;;;14.48;1.50;;;5.60;99.90;;;;;;5017889;28;20021;-81
2024/02/01 06:05:01;;;;;;;25.03;2.40;;;5.60;99.90;;;;;;5017171;28;20393;-81
2024/02/01 06:07:27;;;;;;;17.33;2.87;;;5.50;99.90;;;;;;5033438;28;20037;-81
2024/02/01 06:09:53;;;;;;;17.80;2.20;;;5.50;99.90;;;;;;5033428;28;20060;-81
2024/02/01 06:12:18;;;;;;;16.43;1.93;;;5.50;99.90;;;;;;5034016;28;20026;-81
2024/02/01 06:14:44;;;;;;;15.63;2.00;;;5.50;99.90;;;;;;5033811;28;20555;-82
2024/02/01 06:17:10;;;;;;;22.37;2.30;;;5.50;99.90;;;;;;5035095;28;20037;-81
2024/02/01 06:19:35;;;;;;;24.17;3.13;;;5.40;99.90;;;;;;5035178;28;20432;-81
2024/02/01 06:22:05;;;;;;;20.30;3.50;;;5.40;99.90;;;;;;5035593;28;20052;-82
2024/02/01 06:24:35;;;;;;;21.90;2.50;;;5.30;99.90;;;;;;5035456;28;20440;-81
2024/02/01 06:27:01;;;;;;;13.73;1.90;;;5.30;99.90;;;;;;5035288;28;20025;-82
2024/02/01 06:29:27;;;;;;;9.17;1.50;;;5.30;99.90;;;;;;5034672;28;20032;-82
2024/02/01 06:31:53;;;;;;;22.93;2.63;;;5.30;99.90;;;;;;5033824;28;20123;-81
2024/02/01 06:34:26;;;;;;;17.87;2.27;;;5.20;99.90;;;;;;5035125;28;20536;-82
2024/02/01 06:36:58;;;;;;;16.52;2.00;;;5.20;99.90;;;;;;5034604;28;20026;-82
2024/02/01 06:42:04;;;;;;;17.10;2.53;;;5.10;99.90;;;;;;5035199;28;20216;-83
2024/02/01 06:44:31;;;;;;;25.80;3.77;;;5.00;99.90;;;;;;5033398;28;20017;-83
2024/02/01 06:52:14;;;;;;;19.23;2.20;;;5.00;99.90;;;;;;5034366;28;20086;-82
2024/02/01 06:57:45;;;;;;;14.17;1.60;;;4.90;99.90;;;;;;5025842;28;20041;-81
2024/02/01 07:00:37;;;;;;;15.90;1.50;;;4.90;99.90;;;;;;5033179;28;20049;-82
2024/02/01 07:08:32;;;;;;;15.43;1.83;;;4.80;99.90;;;;;;5034276;28;20177;-81
2024/02/01 07:11:14;;;;;;;15.80;2.50;;;4.80;99.90;;;;;;5033019;28;20022;-81
2024/02/01 07:57:51;;;;;;;20.87;2.90;;;4.40;99.90;;;;;;5033615;28;20496;-81
2024/02/01 08:03:55;;;;;;;23.93;3.10;;;4.40;99.90;;;;;;5011532;28;20029;-81
2024/02/01 08:08:43;;;;;;;27.63;3.25;;;4.50;99.90;;;;;;5033791;28;20178;-79
2024/02/01 08:11:16;;;;;;;13.60;2.30;;;4.50;99.90;;;;;;5031700;28;20478;-80
2024/02/01 08:13:48;;;;;;;27.87;4.17;;;4.50;99.90;;;;;;5032787;28;20033;-80
2024/02/01 08:16:17;;;;;;;22.00;5.17;;;4.40;99.90;;;;;;5033142;28;20365;-80
2024/02/01 08:18:43;;;;;;;22.87;3.30;;;4.50;99.90;;;;;;5032993;28;20436;-80
2024/02/01 08:21:14;;;;;;;19.50;3.27;;;4.60;99.90;;;;;;5033073;28;20018;-80
2024/02/01 08:23:41;;;;;;;17.33;2.30;;;4.60;99.90;;;;;;5033006;28;20477;-79
2024/02/01 08:26:06;;;;;;;26.50;3.13;;;4.50;99.90;;;;;;5032193;28;20029;-80
2024/02/01 08:28:32;;;;;;;24.33;4.57;;;4.60;99.90;;;;;;5032939;28;20059;-81
2024/02/01 08:31:02;;;;;;;20.13;3.60;;;4.60;99.90;;;;;;5032923;28;20022;-80
2024/02/01 08:33:28;;;;;;;19.80;2.97;;;4.60;99.90;;;;;;5032922;28;20036;-80
2024/02/01 08:35:54;;;;;;;25.20;3.97;;;4.60;99.90;;;;;;5032698;28;20025;-80
2024/02/01 08:38:20;;;;;;;22.73;3.57;;;4.70;99.90;;;;;;5032558;28;20029;-80
2024/02/01 08:40:46;;;;;;;23.03;3.67;;;4.70;99.90;;;;;;5031233;28;20087;-80
2024/02/01 08:43:13;;;;;;;28.53;3.77;;;4.70;99.90;;;;;;5032825;28;20057;-80
2024/02/01 08:45:44;;;;;;;23.53;3.53;;;4.80;99.90;;;;;;5033163;28;20493;-80
2024/02/01 08:48:10;;;;;;;24.20;3.90;;;4.80;99.90;;;;;;5032063;28;20033;-80
2024/02/01 08:50:46;;;;;;;26.73;3.67;;;4.80;99.90;;;;;;5031110;28;20029;-80
2024/02/01 08:53:13;;;;;;;25.40;3.60;;;4.80;99.90;;;;;;5032328;28;20080;-80
2024/02/01 08:55:39;;;;;;;22.77;3.90;;;4.90;99.90;;;;;;5030911;28;20049;-79
2024/02/01 08:58:09;;;;;;;24.77;2.93;;;4.90;99.90;;;;;;5030869;28;20029;-81
2024/02/01 09:00:43;;;;;;;24.33;3.60;;;5.00;99.90;;;;;;5014383;28;20502;-80
2024/02/01 09:03:15;;;;;;;25.93;3.10;;;5.00;99.90;;;;;;5016995;28;20034;-80
2024/02/01 09:05:46;;;;;;;18.13;3.17;;;5.10;99.90;;;;;;5019866;28;20088;-80
2024/02/01 09:08:15;;;;;;;27.63;3.80;;;5.20;99.90;;;;;;5018022;28;20057;-80
2024/02/01 09:10:57;;;;;;;25.00;3.67;;;5.20;99.90;;;;;;5015613;28;20030;-80
2024/02/01 09:13:24;;;;;;;29.43;3.73;;;5.20;99.90;;;;;;5026127;28;20048;-80
2024/02/01 09:15:51;;;;;;;22.33;4.27;;;5.20;99.90;;;;;;5036266;28;20449;-80
2024/02/01 09:18:17;;;;;;;25.20;4.30;;;5.30;99.90;;;;;;5036401;28;20052;-80
2024/02/01 09:20:44;;;;;;;22.03;3.50;;;5.40;99.90;;;;;;5036318;28;20109;-80
2024/02/01 09:23:13;;;;;;;25.37;3.80;;;5.40;99.90;;;;;;5034922;28;20017;-80
2024/02/01 09:25:42;;;;;;;17.87;2.27;;;5.60;99.90;;;;;;5034873;28;20557;-80
2024/02/01 09:28:13;;;;;;;22.00;3.60;;;5.50;99.90;;;;;;5034674;28;20021;-80
2024/02/01 09:30:45;;;;;;;35.77;4.87;;;5.60;99.90;;;;;;5035505;28;20034;-80
2024/02/01 09:33:12;;;;;;;19.87;3.60;;;5.80;99.90;;;;;;5036220;28;20596;-80
2024/02/01 09:35:37;;;;;;;21.80;3.30;;;5.80;99.90;;;;;;5036389;28;20470;-79
2024/02/01 09:38:03;;;;;;;19.30;2.57;;;5.90;99.90;;;;;;5034354;28;20075;-80
2024/02/01 09:40:30;;;;;;;25.07;3.63;;;5.90;99.90;;;;;;5036063;28;20042;-80
2024/02/01 09:42:56;;;;;;;24.07;3.43;;;5.90;99.90;;;;;;5035755;28;20029;-80
2024/02/01 09:45:28;;;;;;;26.87;3.73;;;6.10;99.90;;;;;;5035893;28;20096;-81
2024/02/01 09:47:55;;;;;;;21.73;3.47;;;6.20;99.90;;;;;;5033924;28;20124;-80
2024/02/01 09:50:21;;;;;;;22.40;2.80;;;6.30;99.90;;;;;;5035674;28;20596;-80
2024/02/01 09:52:49;;;;;;;31.47;4.20;;;6.50;99.90;;;;;;5029718;28;20112;-80
2024/02/01 09:55:19;;;;;;;22.43;3.83;;;6.60;99.90;;;;;;5034440;28;20056;-82
2024/02/01 09:57:52;;;;;;;23.90;3.53;;;6.80;99.90;;;;;;5035615;28;20025;-81
2024/02/01 10:00:27;;;;;;;26.20;3.50;;;7.10;99.90;;;;;;5035703;28;20139;-81
2024/02/01 10:02:54;;;;;;;17.00;2.83;;;7.50;99.90;;;;;;5035303;28;20033;-79
2024/02/01 10:05:23;;;;;;;12.53;3.37;;;7.90;99.90;;;;;;5035620;28;20025;-80
2024/02/01 10:07:52;;;;;;;23.20;3.57;;;8.30;99.90;;;;;;5035403;28;20022;-80
2024/02/01 10:10:20;;;;;;;18.90;3.13;;;8.80;99.90;;;;;;5035438;28;20253;-80
2024/02/01 10:12:46;;;;;;;21.15;3.38;;;9.20;99.90;;;;;;5034326;28;20024;-80
2024/02/01 10:15:19;;;;;;;27.42;4.20;;;9.70;99.90;;;;;;5035041;28;20025;-80
2024/02/01 10:17:51;;;;;;;17.60;3.10;;;10.20;99.90;;;;;;5034122;28;20038;-80
2024/02/01 10:20:39;;;;;;;13.77;2.65;;;10.70;99.90;;;;;;5028203;28;20104;-80
2024/02/01 10:23:10;;;;;;;12.38;2.30;;;11.10;99.90;;;;;;5026933;28;20474;-81
2024/02/01 10:25:39;;;;;;;18.90;2.60;;;11.50;99.90;;;;;;5034200;28;20018;-80
2024/02/01 10:28:08;;;;;;;18.52;2.85;;;11.90;99.90;;;;;;5034724;28;20123;-80
2024/02/01 10:30:41;;;;;;;12.52;3.25;;;12.20;99.90;;;;;;5034915;28;20394;-81
2024/02/01 10:33:07;;;;;;;17.05;3.55;;;12.60;99.90;;;;;;5035101;28;20060;-81
2024/02/01 10:35:34;;;;;;;19.48;3.22;;;13.00;99.90;;;;;;5034531;28;20112;-81
2024/02/01 10:38:11;;;;;;;16.25;2.97;;;13.40;99.90;;;;;;5034803;28;20022;-81
2024/02/01 10:40:42;;;;;;;17.20;3.95;;;13.60;99.90;;;;;;5034886;28;20064;-82
2024/02/01 10:43:08;;;;;;;16.90;2.95;;;13.80;99.90;;;;;;5029345;28;20080;-81
2024/02/01 10:45:37;;;;;;;11.82;2.75;;;14.00;99.90;;;;;;5014620;28;20025;-81
2024/02/01 10:48:12;;;;;;;17.35;3.20;;;14.30;99.90;;;;;;5014432;28;20037;-82
2024/02/01 10:50:39;;;;;;;12.07;2.92;;;14.30;99.90;;;;;;5020054;28;20474;-81
2024/02/01 10:53:08;;;;;;;15.77;3.63;;;14.20;99.60;;;;;;5033704;28;20118;-81
2024/02/01 10:55:37;;;;;;;16.65;3.35;;;14.30;97.00;;;;;;5032687;28;20056;-79
2024/02/01 10:58:04;;;;;;;19.73;3.55;;;14.20;95.40;;;;;;5030853;28;20013;-81
2024/02/01 11:00:31;;;;;;;17.30;3.50;;;14.20;94.80;;;;;;5036043;28;20028;-81
2024/02/01 11:02:58;;;;;;;20.95;3.60;;;14.20;92.30;;;;;;5035199;28;20034;-80
2024/02/01 11:05:29;;;;;;;16.67;3.55;;;14.20;90.50;;;;;;5033932;28;20056;-80
2024/02/01 11:07:56;;;;;;;18.17;3.50;;;14.30;91.10;;;;;;5033868;28;20017;-79
2024/02/01 11:10:23;;;;;;;12.23;3.28;;;14.50;90.70;;;;;;5032601;28;20105;-80
2024/02/01 11:12:54;;;;;;;15.85;3.60;;;14.80;90.60;;;;;;5054617;28;20018;-81
2024/02/01 11:15:24;;;;;;;16.27;3.15;;;14.80;88.80;;;;;;5032634;28;20037;-81
2024/02/01 11:17:50;;;;;;;16.58;2.95;;;14.90;86.40;;;;;;5033833;28;20020;-80
2024/02/01 11:20:22;;;;;;;19.38;3.22;;;14.90;85.40;;;;;;5034250;28;20029;-81
2024/02/01 11:22:58;;;;;;;16.65;3.67;;;15.10;85.20;;;;;;5033904;28;20474;-81
2024/02/01 11:25:33;;;;;;;17.13;2.90;;;15.30;82.90;;;;;;5033971;28;20128;-81
2024/02/01 11:28:00;;;;;;;14.63;3.78;;;15.50;81.00;;;;;;5033994;28;20025;-81
2024/02/01 11:30:33;;;;;;;14.07;2.78;;;15.70;80.20;;;;;;5033933;28;20098;-81
2024/02/01 11:32:59;;;;;;;16.37;3.47;;;16.00;80.40;;;;;;5033491;28;20030;-81
2024/02/01 11:35:27;;;;;;;12.43;2.88;;;16.20;79.50;;;;;;5033821;28;20045;-82
2024/02/01 11:38:01;;;;;;;15.10;2.83;;;16.30;76.00;;;;;;5033708;28;20044;-81
2024/02/01 11:40:27;;;;;;;;;;;16.40;75.20;;;;;;5033648;28;20139;-82
2024/02/01 11:42:52;;;;;;;16.55;3.10;;;16.60;73.90;;;;;;5033518;28;20393;-81
2024/02/01 11:45:18;;;;;;;11.52;2.63;;;16.60;74.20;;;;;;5033170;28;20079;-81
2024/02/01 11:47:45;;;;;;;15.65;3.40;;;16.60;72.70;;;;;;5033160;28;20021;-81
2024/02/01 11:50:11;;;;;;;14.55;3.08;;;16.50;71.70;;;;;;5033568;28;20382;-82
2024/02/01 11:53:00;;;;;;;17.33;3.30;;;16.50;71.70;;;;;;5033368;28;20466;-81
2024/02/01 11:55:29;;;;;;;14.60;3.10;;;16.50;71.10;;;;;;5033544;28;20035;-82
2024/02/01 11:57:57;;;;;;;19.08;3.55;;;16.60;70.30;;;;;;5033711;28;20108;-81
2024/02/01 12:00:24;;;;;;;20.20;3.63;;;16.60;69.20;;;;;;5030676;28;20504;-81
2024/02/01 12:02:50;;;;;;;14.88;3.17;;;16.60;69.30;;;;;;5032315;28;20033;-80
2024/02/01 12:05:20;;;;;;;19.23;3.55;;;16.60;69.30;;;;;;5032930;28;20085;-81
2024/02/01 12:07:47;;;;;;;19.02;3.88;;;16.70;67.90;;;;;;5033545;28;20025;-81
2024/02/01 12:10:16;;;;;;;17.55;3.33;;;16.80;66.60;;;;;;5032996;28;20508;-82
2024/02/01 12:12:44;;;;;;;18.35;3.47;;;16.90;66.40;;;;;;5031576;28;20377;-82
2024/02/01 12:15:11;;;;;;;15.25;3.15;;;17.00;66.20;;;;;;5032946;28;20026;-81
2024/02/01 12:17:45;;;;;;;16.90;3.30;;;17.10;67.00;;;;;;5031694;28;20144;-82
2024/02/01 12:20:17;;;;;;;13.90;2.83;;;17.30;65.70;;;;;;5033224;28;20022;-81
2024/02/01 12:22:48;;;;;;;15.15;2.72;;;17.60;65.30;;;;;;5031873;28;20056;-81
2024/02/01 12:25:19;;;;;;;16.80;4.25;;;17.90;65.30;;;;;;5031489;28;20040;-81
2024/02/01 12:27:45;;;;;;;25.10;4.00;;;18.30;65.20;;;;;;5032940;28;20167;-81
2024/02/01 12:30:14;;;;;;;13.30;3.08;;;18.50;63.20;;;;;;5031329;28;20028;-83
2024/02/01 12:32:46;;;;;;;17.80;4.28;;;18.80;62.50;;;;;;5032914;28;20025;-84
2024/02/01 12:35:21;;;;;;;12.57;2.75;;;19.00;61.70;;;;;;5031057;28;20036;-83
2024/02/01 12:37:47;;;;;;;14.30;3.10;;;19.20;61.00;;;;;;5032765;28;20022;-85
2024/02/01 12:40:14;;;;;;;12.80;3.22;;;19.00;58.80;;;;;;5031770;28;20064;-83
2024/02/01 12:42:41;;;;;;;12.27;2.88;;;18.80;58.70;;;;;;5033044;28;20021;-83
2024/02/01 12:45:08;;;;;;;12.02;2.75;;;18.50;59.20;;;;;;5031774;28;20053;-83
2024/02/01 12:47:37;;;;;;;15.48;3.38;;;18.40;59.30;;;;;;5032723;28;20108;-82
2024/02/01 12:50:07;;;;;;;16.27;3.08;;;18.20;59.40;;;;;;5032778;28;20486;-81
2024/02/01 12:52:36;;;;;;;15.35;3.22;;;17.90;59.40;;;;;;5032863;28;20033;-83
2024/02/01 12:55:01;;;;;;;16.33;2.90;;;17.60;59.10;;;;;;5032578;28;20033;-82
2024/02/01 12:57:27;;;;;;;17.77;2.90;;;17.30;59.90;;;;;;5032045;28;20363;-83
2024/02/01 12:59:57;;;;;;;18.30;3.17;;;17.10;59.80;;;;;;5032690;28;20087;-83
2024/02/01 13:02:24;;;;;;;17.98;3.17;;;17.00;60.30;;;;;;5032697;28;20162;-83
2024/02/01 13:04:51;;;;;;;15.35;2.85;;;17.10;60.50;;;;;;5032409;28;20083;-83
2024/02/01 13:07:17;;;;;;;18.95;3.55;;;16.90;60.00;;;;;;5033168;28;20034;-82
2024/02/01 13:09:43;;;;;;;15.77;3.25;;;16.60;59.80;;;;;;5032776;28;20029;-82
2024/02/01 13:12:18;;;;;;;16.95;3.28;;;16.60;60.60;;;;;;5032961;28;20089;-82
2024/02/01 13:14:57;;;;;;;23.42;2.97;;;16.50;61.00;;;;;;5031429;28;20030;-82
2024/02/01 13:17:30;;;;;;;18.92;3.97;;;16.40;60.00;;;;;;5032671;28;20025;-82
2024/02/01 13:19:56;;;;;;;13.48;2.78;;;16.10;60.40;;;;;;5032363;28;20033;-82
2024/02/01 13:22:25;;;;;;;15.52;3.17;;;16.10;61.80;;;;;;5032723;28;20025;-82
2024/02/01 13:24:51;;;;;;;15.18;2.78;;;16.20;61.60;;;;;;5031411;28;20026;-82
2024/02/01 13:27:17;;;;;;;18.83;2.80;;;16.10;61.00;;;;;;5032391;28;20025;-82
2024/02/01 13:29:43;;;;;;;16.52;3.15;;;15.90;60.80;;;;;;5031532;28;20135;-81
2024/02/01 13:32:12;;;;;;;14.40;2.58;;;15.60;61.00;;;;;;5014020;28;20022;-82
2024/02/01 13:34:39;;;;;;;15.00;3.03;;;15.30;61.50;;;;;;5011126;28;20034;-83
2024/02/01 13:37:09;;;;;;;12.48;2.63;;;15.00;61.50;;;;;;5011291;28;20022;-82
2024/02/01 13:39:36;;;;;;;15.40;2.72;;;14.60;62.10;;;;;;5012664;28;20032;-82
2024/02/01 13:42:05;;;;;;;15.93;2.90;;;14.30;62.60;;;;;;5012278;28;20042;-81
2024/02/01 13:44:31;;;;;;;16.00;2.72;;;14.40;64.40;;;;;;5010772;28;20026;-81
2024/02/01 13:46:57;;;;;;;12.18;2.53;;;14.90;65.20;;;;;;5012067;28;20033;-81
2024/02/01 13:49:24;;;;;;;11.18;2.10;;;15.50;65.70;;;;;;5031171;28;20040;-82
2024/02/01 13:51:50;;;;;;;14.15;2.85;;;16.30;65.50;;;;;;5031087;28;20029;-82